sensor_id;sensor_type;location;lat;lon;timestamp;pressure;altitude;pressure_sealevel;temperature;humidity
7754;BME280;3921;42.266;23.122;2022-12-07T00:01:49;95526.13;;;7.63;83.84
7754;BME280;3921;42.266;23.122;2022-12-07T00:04:17;95175.81;;;5.39;83.87
7754;BME280;3921;42.266;23.122;2022-12-07T00:06:53;95294.47;;;6.19;84.40
7754;BME280;3921;42.266;23.122;2022-12-07T00:09:20;95440.75;;;7.01;84.71
7754;BME280;3921;42.266;23.122;2022-12-07T00:11:50;95162.22;;;5.10;84.22
7754;BME280;3921;42.266;23.122;2022-12-07T00:14:18;95159.03;;;5.24;84.33
7754;BME280;3921;42.266;23.122;2022-12-07T00:16:59;95267.53;;;5.80;84.08
7754;BME280;3921;42.266;23.122;2022-12-07T00:19:26;95658.34;;;8.36;84.23
7754;BME280;3921;42.266;23.122;2022-12-07T00:21:56;95113.22;;;5.05;82.58
7754;BME280;3921;42.266;23.122;2022-12-07T00:24:25;95153.97;;;5.15;83.22
7754;BME280;3921;42.266;23.122;2022-12-07T00:26:52;95042.19;;;4.53;83.79
7754;BME280;3921;42.266;23.122;2022-12-07T00:29:20;95168.06;;;5.13;83.96
7754;BME280;3921;42.266;23.122;2022-12-07T00:31:48;95648.25;;;8.29;84.10
7754;BME280;3921;42.266;23.122;2022-12-07T00:34:19;95457.47;;;7.14;84.13
7754;BME280;3921;42.266;23.122;2022-12-07T00:36:48;95392.22;;;6.70;83.79
7754;BME280;3921;42.266;23.122;2022-12-07T00:39:16;95571.25;;;7.85;83.78
7754;BME280;3921;42.266;23.122;2022-12-07T00:41:46;95539.44;;;7.62;84.36
7754;BME280;3921;42.266;23.122;2022-12-07T00:44:13;95190.63;;;5.28;83.88
7754;BME280;3921;42.266;23.122;2022-12-07T00:46:42;95555.28;;;7.58;84.40
7754;BME280;3921;42.266;23.122;2022-12-07T00:49:15;95634.91;;;8.28;84.55
7754;BME280;3921;42.266;23.122;2022-12-07T00:51:44;95507.69;;;7.48;84.11
7754;BME280;3921;42.266;23.122;2022-12-07T00:54:16;95122.41;;;5.11;83.67
7754;BME280;3921;42.266;23.122;2022-12-07T00:56:43;95116.50;;;5.04;83.77
7754;BME280;3921;42.266;23.122;2022-12-07T00:59:20;95113.34;;;5.21;83.69
7754;BME280;3921;42.266;23.122;2022-12-07T01:02:00;95169.13;;;5.35;83.91
7754;BME280;3921;42.266;23.122;2022-12-07T01:04:34;95372.31;;;6.77;84.08
7754;BME280;3921;42.266;23.122;2022-12-07T01:07:04;95148.25;;;5.24;83.83
7754;BME280;3921;42.266;23.122;2022-12-07T01:09:32;95147.53;;;5.39;84.02
7754;BME280;3921;42.266;23.122;2022-12-07T01:12:02;95080.63;;;4.83;84.07
7754;BME280;3921;42.266;23.122;2022-12-07T01:14:47;95649.16;;;8.37;84.26
7754;BME280;3921;42.266;23.122;2022-12-07T01:17:25;95109.06;;;5.06;84.10
7754;BME280;3921;42.266;23.122;2022-12-07T01:19:57;95104.09;;;5.07;84.21
7754;BME280;3921;42.266;23.122;2022-12-07T01:22:31;95305.53;;;6.49;84.40
7754;BME280;3921;42.266;23.122;2022-12-07T01:25:06;95152.56;;;5.43;84.09
7754;BME280;3921;42.266;23.122;2022-12-07T01:33:20;95165.00;;;5.42;84.43
7754;BME280;3921;42.266;23.122;2022-12-07T01:36:03;95185.81;;;5.48;84.35
7754;BME280;3921;42.266;23.122;2022-12-07T01:38:48;95153.34;;;5.38;84.30
7754;BME280;3921;42.266;23.122;2022-12-07T01:41:19;95621.69;;;8.44;85.18
7754;BME280;3921;42.266;23.122;2022-12-07T01:44:21;95167.69;;;5.63;84.22
7754;BME280;3921;42.266;23.122;2022-12-07T01:46:49;95105.06;;;5.25;85.02
7754;BME280;3921;42.266;23.122;2022-12-07T01:49:23;95057.66;;;5.11;85.20
7754;BME280;3921;42.266;23.122;2022-12-07T01:52:00;95061.72;;;5.04;84.70
7754;BME280;3921;42.266;23.122;2022-12-07T01:54:31;95138.50;;;5.50;85.08
7754;BME280;3921;42.266;23.122;2022-12-07T01:57:03;95496.22;;;7.85;85.56
7754;BME280;3921;42.266;23.122;2022-12-07T02:02:19;95595.81;;;8.45;85.01
7754;BME280;3921;42.266;23.122;2022-12-07T02:05:09;95124.22;;;5.30;85.10
7754;BME280;3921;42.266;23.122;2022-12-07T02:07:44;95421.78;;;7.29;85.68
7754;BME280;3921;42.266;23.122;2022-12-07T02:10:16;95385.72;;;6.90;85.99
7754;BME280;3921;42.266;23.122;2022-12-07T02:12:52;95232.03;;;6.05;85.80
7754;BME280;3921;42.266;23.122;2022-12-07T02:15:22;95085.97;;;5.25;85.75
7754;BME280;3921;42.266;23.122;2022-12-07T02:17:59;94993.38;;;4.66;86.26
7754;BME280;3921;42.266;23.122;2022-12-07T02:20:29;95079.28;;;5.20;85.94
7754;BME280;3921;42.266;23.122;2022-12-07T02:23:39;95586.59;;;8.40;86.62
7754;BME280;3921;42.266;23.122;2022-12-07T02:26:43;95156.09;;;5.68;85.77
7754;BME280;3921;42.266;23.122;2022-12-07T02:29:26;95482.00;;;7.78;85.67
7754;BME280;3921;42.266;23.122;2022-12-07T02:32:04;95589.97;;;8.45;86.11
7754;BME280;3921;42.266;23.122;2022-12-07T02:34:42;95459.38;;;7.55;86.17
7754;BME280;3921;42.266;23.122;2022-12-07T02:37:37;95532.25;;;8.22;85.56
7754;BME280;3921;42.266;23.122;2022-12-07T02:40:09;95145.16;;;5.52;85.84
7754;BME280;3921;42.266;23.122;2022-12-07T02:42:42;95471.97;;;7.73;85.84
7754;BME280;3921;42.266;23.122;2022-12-07T02:45:18;95112.75;;;5.48;85.34
7754;BME280;3921;42.266;23.122;2022-12-07T02:47:50;95463.69;;;7.82;85.18
7754;BME280;3921;42.266;23.122;2022-12-07T02:50:21;95016.84;;;4.97;85.52
7754;BME280;3921;42.266;23.122;2022-12-07T02:52:51;95243.78;;;6.23;85.81
7754;BME280;3921;42.266;23.122;2022-12-07T02:55:23;95589.97;;;8.45;86.56
7754;BME280;3921;42.266;23.122;2022-12-07T02:58:17;95585.78;;;8.44;86.78
7754;BME280;3921;42.266;23.122;2022-12-07T03:01:04;95048.50;;;5.10;86.29
7754;BME280;3921;42.266;23.122;2022-12-07T03:03:47;95280.56;;;6.47;86.46
7754;BME280;3921;42.266;23.122;2022-12-07T03:06:22;95090.13;;;5.25;86.05
7754;BME280;3921;42.266;23.122;2022-12-07T03:09:05;95088.66;;;5.47;86.45
7754;BME280;3921;42.266;23.122;2022-12-07T03:11:42;95078.56;;;5.33;86.38
7754;BME280;3921;42.266;23.122;2022-12-07T03:14:17;95168.56;;;5.70;86.09
7754;BME280;3921;42.266;23.122;2022-12-07T03:16:52;95172.13;;;5.98;86.09
7754;BME280;3921;42.266;23.122;2022-12-07T03:19:23;95527.91;;;7.83;86.27
7754;BME280;3921;42.266;23.122;2022-12-07T03:21:54;95095.25;;;5.43;86.57
7754;BME280;3921;42.266;23.122;2022-12-07T03:24:26;95135.13;;;5.42;86.85
7754;BME280;3921;42.266;23.122;2022-12-07T03:26:59;95193.59;;;5.82;86.31
7754;BME280;3921;42.266;23.122;2022-12-07T03:29:31;95270.59;;;6.53;86.65
7754;BME280;3921;42.266;23.122;2022-12-07T03:32:05;95236.34;;;6.29;86.68
7754;BME280;3921;42.266;23.122;2022-12-07T03:34:36;95269.81;;;6.57;86.31
7754;BME280;3921;42.266;23.122;2022-12-07T03:37:10;95409.31;;;7.38;86.77
7754;BME280;3921;42.266;23.122;2022-12-07T03:39:46;95057.72;;;5.19;85.76
7754;BME280;3921;42.266;23.122;2022-12-07T03:42:17;95263.97;;;6.54;85.79
7754;BME280;3921;42.266;23.122;2022-12-07T03:44:44;95584.13;;;8.47;86.17
7754;BME280;3921;42.266;23.122;2022-12-07T03:47:16;95160.34;;;5.81;86.14
7754;BME280;3921;42.266;23.122;2022-12-07T03:49:51;95151.16;;;5.74;85.57
7754;BME280;3921;42.266;23.122;2022-12-07T03:52:24;95233.81;;;6.22;85.70
7754;BME280;3921;42.266;23.122;2022-12-07T03:54:58;95561.59;;;8.46;85.84
7754;BME280;3921;42.266;23.122;2022-12-07T03:57:30;95110.16;;;5.39;85.77
7754;BME280;3921;42.266;23.122;2022-12-07T04:00:01;95056.91;;;5.23;85.47
7754;BME280;3921;42.266;23.122;2022-12-07T04:02:32;95049.50;;;5.29;85.03
7754;BME280;3921;42.266;23.122;2022-12-07T04:05:03;95582.41;;;8.36;85.72
7754;BME280;3921;42.266;23.122;2022-12-07T04:07:30;95210.47;;;6.13;85.57
7754;BME280;3921;42.266;23.122;2022-12-07T04:09:57;95208.03;;;6.20;85.55
7754;BME280;3921;42.266;23.122;2022-12-07T04:12:24;95272.25;;;6.48;85.45
7754;BME280;3921;42.266;23.122;2022-12-07T04:14:51;95113.53;;;5.42;84.86
7754;BME280;3921;42.266;23.122;2022-12-07T04:17:18;95087.69;;;5.32;85.27
7754;BME280;3921;42.266;23.122;2022-12-07T04:19:47;95219.63;;;6.18;85.19
7754;BME280;3921;42.266;23.122;2022-12-07T04:22:15;95567.34;;;8.34;85.50
7754;BME280;3921;42.266;23.122;2022-12-07T04:24:43;95580.72;;;8.32;85.38
7754;BME280;3921;42.266;23.122;2022-12-07T04:27:10;95248.06;;;6.38;84.75
7754;BME280;3921;42.266;23.122;2022-12-07T04:29:37;95049.44;;;5.23;84.68
7754;BME280;3921;42.266;23.122;2022-12-07T04:32:04;95086.88;;;5.32;85.05
7754;BME280;3921;42.266;23.122;2022-12-07T04:34:31;95016.66;;;4.74;85.26
7754;BME280;3921;42.266;23.122;2022-12-07T04:37:00;95415.97;;;7.34;85.78
7754;BME280;3921;42.266;23.122;2022-12-07T04:39:30;95024.28;;;4.88;85.25
7754;BME280;3921;42.266;23.122;2022-12-07T04:42:11;95477.75;;;7.58;86.00
7754;BME280;3921;42.266;23.122;2022-12-07T04:44:39;95368.19;;;6.87;85.70
7754;BME280;3921;42.266;23.122;2022-12-07T04:47:06;95382.53;;;7.12;86.14
7754;BME280;3921;42.266;23.122;2022-12-07T04:49:33;95425.03;;;7.18;85.38
7754;BME280;3921;42.266;23.122;2022-12-07T04:52:02;95033.31;;;4.78;85.18
7754;BME280;3921;42.266;23.122;2022-12-07T04:54:29;95124.19;;;5.27;85.66
7754;BME280;3921;42.266;23.122;2022-12-07T04:56:56;95102.53;;;5.20;85.54
7754;BME280;3921;42.266;23.122;2022-12-07T04:59:23;95250.38;;;6.10;85.84
7754;BME280;3921;42.266;23.122;2022-12-07T05:01:51;95286.22;;;6.23;85.54
7754;BME280;3921;42.266;23.122;2022-12-07T05:04:18;95389.09;;;6.98;85.68
7754;BME280;3921;42.266;23.122;2022-12-07T05:06:47;95478.50;;;7.40;86.28
7754;BME280;3921;42.266;23.122;2022-12-07T05:09:15;95217.69;;;5.81;85.63
7754;BME280;3921;42.266;23.122;2022-12-07T05:11:43;95347.31;;;6.76;86.08
7754;BME280;3921;42.266;23.122;2022-12-07T05:14:20;95476.03;;;7.51;85.74
7754;BME280;3921;42.266;23.122;2022-12-07T05:16:49;95080.91;;;5.12;85.45
7754;BME280;3921;42.266;23.122;2022-12-07T05:19:17;95085.88;;;5.12;85.19
7754;BME280;3921;42.266;23.122;2022-12-07T05:21:44;95078.31;;;5.02;85.76
7754;BME280;3921;42.266;23.122;2022-12-07T05:24:15;95120.91;;;5.28;85.08
7754;BME280;3921;42.266;23.122;2022-12-07T05:26:43;95194.47;;;5.87;85.39
7754;BME280;3921;42.266;23.122;2022-12-07T05:32:32;95256.25;;;6.20;85.61
7754;BME280;3921;42.266;23.122;2022-12-07T05:58:23;95407.44;;;7.05;86.08
7754;BME280;3921;42.266;23.122;2022-12-07T06:11:14;95591.44;;;8.09;86.65
7754;BME280;3921;42.266;23.122;2022-12-07T06:17:07;95040.75;;;4.78;86.21
7754;BME280;3921;42.266;23.122;2022-12-07T06:19:46;95298.75;;;6.31;86.22
7754;BME280;3921;42.266;23.122;2022-12-07T06:22:13;95464.28;;;7.38;87.12
7754;BME280;3921;42.266;23.122;2022-12-07T06:24:41;95576.38;;;8.06;86.96
7754;BME280;3921;42.266;23.122;2022-12-07T06:27:09;95202.78;;;5.86;86.37
7754;BME280;3921;42.266;23.122;2022-12-07T06:29:40;95043.41;;;4.95;86.18
7754;BME280;3921;42.266;23.122;2022-12-07T06:32:28;95059.94;;;4.88;86.62
7754;BME280;3921;42.266;23.122;2022-12-07T06:35:04;95494.44;;;7.62;86.83
7754;BME280;3921;42.266;23.122;2022-12-07T06:37:41;95140.88;;;5.36;86.84
7754;BME280;3921;42.266;23.122;2022-12-07T06:40:36;95125.78;;;5.16;86.61
7754;BME280;3921;42.266;23.122;2022-12-07T06:43:23;95032.44;;;4.74;86.30
7754;BME280;3921;42.266;23.122;2022-12-07T06:46:04;95064.88;;;4.82;86.33
7754;BME280;3921;42.266;23.122;2022-12-07T06:48:55;95473.56;;;7.54;86.50
7754;BME280;3921;42.266;23.122;2022-12-07T06:51:23;95345.63;;;6.75;86.64
7754;BME280;3921;42.266;23.122;2022-12-07T07:00:44;95588.22;;;8.32;87.10
7754;BME280;3921;42.266;23.122;2022-12-07T07:04:34;95581.50;;;8.28;86.93
7754;BME280;3921;42.266;23.122;2022-12-07T07:07:22;95587.38;;;8.33;87.03
7754;BME280;3921;42.266;23.122;2022-12-07T07:17:36;95133.59;;;5.59;86.53
7754;BME280;3921;42.266;23.122;2022-12-07T07:20:09;95026.81;;;4.94;86.74
7754;BME280;3921;42.266;23.122;2022-12-07T07:22:51;95440.13;;;7.37;86.66
7754;BME280;3921;42.266;23.122;2022-12-07T07:25:23;95223.91;;;6.34;87.20
7754;BME280;3921;42.266;23.122;2022-12-07T07:27:53;95187.91;;;5.95;86.70
7754;BME280;3921;42.266;23.122;2022-12-07T07:30:23;95271.50;;;6.61;86.32
7754;BME280;3921;42.266;23.122;2022-12-07T07:32:50;95077.81;;;5.42;86.63
7754;BME280;3921;42.266;23.122;2022-12-07T07:35:43;95585.88;;;8.67;87.75
7754;BME280;3921;42.266;23.122;2022-12-07T07:41:32;95202.31;;;6.42;87.20
7754;BME280;3921;42.266;23.122;2022-12-07T07:44:21;95108.09;;;5.95;87.15
7754;BME280;3921;42.266;23.122;2022-12-07T07:46:54;95256.69;;;6.97;87.49
7754;BME280;3921;42.266;23.122;2022-12-07T07:49:24;95568.38;;;8.88;86.98
7754;BME280;3921;42.266;23.122;2022-12-07T07:51:55;95089.72;;;5.81;86.64
7754;BME280;3921;42.266;23.122;2022-12-07T07:54:24;95141.50;;;6.20;86.47
7754;BME280;3921;42.266;23.122;2022-12-07T07:56:56;95115.50;;;5.86;86.26
7754;BME280;3921;42.266;23.122;2022-12-07T07:59:23;95095.63;;;5.95;86.68
7754;BME280;3921;42.266;23.122;2022-12-07T09:27:39;95202.72;;;7.72;84.68
7754;BME280;3921;42.266;23.122;2022-12-07T09:33:02;95045.16;;;6.65;85.08
7754;BME280;3921;42.266;23.122;2022-12-07T09:35:48;95190.22;;;7.80;84.70
7754;BME280;3921;42.266;23.122;2022-12-07T09:38:52;95186.88;;;7.79;84.92
7754;BME280;3921;42.266;23.122;2022-12-07T09:41:38;95024.41;;;6.72;84.54
7754;BME280;3921;42.266;23.122;2022-12-07T12:55:12;95106.50;;;11.38;63.14
7754;BME280;3921;42.266;23.122;2022-12-07T12:57:48;95130.34;;;11.70;63.07
7754;BME280;3921;42.266;23.122;2022-12-07T13:03:55;94804.28;;;9.56;63.41
7754;BME280;3921;42.266;23.122;2022-12-07T13:06:36;94957.75;;;10.56;63.50
7754;BME280;3921;42.266;23.122;2022-12-07T13:09:53;94835.75;;;9.78;63.78
7754;BME280;3921;42.266;23.122;2022-12-07T13:23:01;94721.47;;;8.94;64.96
7754;BME280;3921;42.266;23.122;2022-12-07T13:29:21;94793.78;;;9.29;65.79
7754;BME280;3921;42.266;23.122;2022-12-07T13:31:58;95061.81;;;11.02;65.50
7754;BME280;3921;42.266;23.122;2022-12-07T13:34:34;94844.47;;;9.53;65.66
7754;BME280;3921;42.266;23.122;2022-12-07T13:37:28;94952.38;;;10.18;66.25
7754;BME280;3921;42.266;23.122;2022-12-07T13:40:22;94750.72;;;8.95;66.14
7754;BME280;3921;42.266;23.122;2022-12-07T13:43:21;94929.22;;;9.96;67.01
7754;BME280;3921;42.266;23.122;2022-12-07T13:45:56;94721.59;;;8.87;67.29
7754;BME280;3921;42.266;23.122;2022-12-07T13:48:42;95290.66;;;12.25;67.55
7754;BME280;3921;42.266;23.122;2022-12-07T13:51:22;95056.88;;;10.96;68.26
7754;BME280;3921;42.266;23.122;2022-12-07T13:53:59;94977.31;;;10.33;68.61
7754;BME280;3921;42.266;23.122;2022-12-07T13:56:54;94780.63;;;9.09;68.49
7754;BME280;3921;42.266;23.122;2022-12-07T13:59:31;94742.44;;;8.87;69.25
7754;BME280;3921;42.266;23.122;2022-12-07T14:02:33;95149.75;;;11.62;69.28
7754;BME280;3921;42.266;23.122;2022-12-07T14:05:09;95261.31;;;12.21;69.54
7754;BME280;3921;42.266;23.122;2022-12-07T14:07:57;94764.03;;;9.00;68.87
7754;BME280;3921;42.266;23.122;2022-12-07T14:10:34;95273.16;;;12.17;69.15
7754;BME280;3921;42.266;23.122;2022-12-07T14:13:51;94789.09;;;8.99;69.51
7754;BME280;3921;42.266;23.122;2022-12-07T14:16:33;95247.59;;;11.85;70.19
7754;BME280;3921;42.266;23.122;2022-12-07T14:19:40;94801.69;;;8.93;70.19
7754;BME280;3921;42.266;23.122;2022-12-07T14:22:31;94812.56;;;8.89;70.12
7754;BME280;3921;42.266;23.122;2022-12-07T14:25:26;94842.53;;;8.99;70.60
7754;BME280;3921;42.266;23.122;2022-12-07T14:28:09;95054.44;;;10.22;71.33
7754;BME280;3921;42.266;23.122;2022-12-07T14:31:16;94738.72;;;8.45;71.39
7754;BME280;3921;42.266;23.122;2022-12-07T14:34:10;94891.53;;;9.29;71.31
7754;BME280;3921;42.266;23.122;2022-12-07T14:36:49;95230.66;;;11.34;72.04
7754;BME280;3921;42.266;23.122;2022-12-07T14:39:24;94825.28;;;8.72;72.34
7754;BME280;3921;42.266;23.122;2022-12-07T14:42:15;94817.81;;;8.64;73.34
7754;BME280;3921;42.266;23.122;2022-12-07T14:44:54;95282.28;;;11.63;73.74
7754;BME280;3921;42.266;23.122;2022-12-07T14:47:37;95004.66;;;9.80;74.21
7754;BME280;3921;42.266;23.122;2022-12-07T14:50:19;94759.63;;;8.41;73.92
7754;BME280;3921;42.266;23.122;2022-12-07T14:52:58;94767.13;;;8.44;74.20
7754;BME280;3921;42.266;23.122;2022-12-07T14:55:45;94756.50;;;8.14;74.97
7754;BME280;3921;42.266;23.122;2022-12-07T14:58:22;95180.03;;;10.94;74.51
7754;BME280;3921;42.266;23.122;2022-12-07T15:01:01;94912.50;;;9.19;74.50
7754;BME280;3921;42.266;23.122;2022-12-07T15:03:50;95285.81;;;11.50;75.79
7754;BME280;3921;42.266;23.122;2022-12-07T15:09:21;94744.06;;;8.05;74.77
7754;BME280;3921;42.266;23.122;2022-12-07T15:12:14;95254.28;;;11.24;76.08
7754;BME280;3921;42.266;23.122;2022-12-07T15:14:52;94705.91;;;7.79;76.11
7754;BME280;3921;42.266;23.122;2022-12-07T15:17:32;95321.13;;;11.42;76.07
7754;BME280;3921;42.266;23.122;2022-12-07T15:20:39;94772.44;;;8.01;75.38
7754;BME280;3921;42.266;23.122;2022-12-07T15:23:16;95202.03;;;10.75;75.65
7754;BME280;3921;42.266;23.122;2022-12-07T15:25:48;95320.31;;;11.41;75.67
7754;BME280;3921;42.266;23.122;2022-12-07T15:31:24;94745.06;;;7.80;74.74
7754;BME280;3921;42.266;23.122;2022-12-07T15:34:23;94789.91;;;8.07;74.70
7754;BME280;3921;42.266;23.122;2022-12-07T15:36:53;94993.41;;;9.37;74.89
7754;BME280;3921;42.266;23.122;2022-12-07T15:39:25;94813.28;;;8.03;74.56
7754;BME280;3921;42.266;23.122;2022-12-07T15:41:54;94883.09;;;8.43;75.13
7754;BME280;3921;42.266;23.122;2022-12-07T15:44:48;94792.50;;;7.90;75.67
7754;BME280;3921;42.266;23.122;2022-12-07T15:47:33;95030.97;;;9.40;75.63
7754;BME280;3921;42.266;23.122;2022-12-07T15:50:09;95020.91;;;9.47;76.33
7754;BME280;3921;42.266;23.122;2022-12-07T15:52:41;94796.59;;;8.04;77.00
7754;BME280;3921;42.266;23.122;2022-12-07T15:55:11;95011.25;;;9.01;77.68
7754;BME280;3921;42.266;23.122;2022-12-07T15:57:47;94829.19;;;7.90;78.89
7754;BME280;3921;42.266;23.122;2022-12-07T16:00:42;94790.91;;;7.82;79.66
7754;BME280;3921;42.266;23.122;2022-12-07T16:03:24;94946.44;;;8.54;79.97
7754;BME280;3921;42.266;23.122;2022-12-07T16:09:22;94860.06;;;7.92;81.37
7754;BME280;3921;42.266;23.122;2022-12-07T16:12:07;94871.66;;;8.04;80.96
7754;BME280;3921;42.266;23.122;2022-12-07T16:15:19;95272.53;;;10.63;81.39
7754;BME280;3921;42.266;23.122;2022-12-07T16:18:13;95371.00;;;11.00;82.17
7754;BME280;3921;42.266;23.122;2022-12-07T16:21:21;95102.78;;;9.50;82.22
7754;BME280;3921;42.266;23.122;2022-12-07T16:23:57;95274.44;;;10.35;82.13
7754;BME280;3921;42.266;23.122;2022-12-07T16:26:27;95365.13;;;11.03;82.25
7754;BME280;3921;42.266;23.122;2022-12-07T16:28:58;94853.44;;;7.82;82.02
7754;BME280;3921;42.266;23.122;2022-12-07T16:31:30;95389.38;;;11.08;82.21
7754;BME280;3921;42.266;23.122;2022-12-07T16:34:13;94804.44;;;7.49;81.29
7754;BME280;3921;42.266;23.122;2022-12-07T16:36:58;94856.75;;;7.79;81.27
7754;BME280;3921;42.266;23.122;2022-12-07T16:39:44;95243.38;;;10.47;81.23
7754;BME280;3921;42.266;23.122;2022-12-07T16:42:37;94852.44;;;8.07;81.24
7754;BME280;3921;42.266;23.122;2022-12-07T16:45:12;94885.72;;;8.21;81.37
7754;BME280;3921;42.266;23.122;2022-12-07T16:47:39;94867.44;;;8.12;81.00
7754;BME280;3921;42.266;23.122;2022-12-07T16:50:07;94936.53;;;8.39;80.91
7754;BME280;3921;42.266;23.122;2022-12-07T16:53:06;94848.41;;;7.83;80.78
7754;BME280;3921;42.266;23.122;2022-12-07T16:55:36;94945.66;;;8.49;80.58
7754;BME280;3921;42.266;23.122;2022-12-07T16:58:07;94845.84;;;7.98;80.56
7754;BME280;3921;42.266;23.122;2022-12-07T17:00:36;94900.78;;;8.15;80.76
7754;BME280;3921;42.266;23.122;2022-12-07T17:18:38;94859.19;;;7.96;80.16
7754;BME280;3921;42.266;23.122;2022-12-07T17:21:13;94947.44;;;8.22;79.90
7754;BME280;3921;42.266;23.122;2022-12-07T17:37:22;94936.75;;;7.94;81.05
7754;BME280;3921;42.266;23.122;2022-12-07T17:40:10;95113.09;;;9.05;80.65
7754;BME280;3921;42.266;23.122;2022-12-07T17:42:54;95142.09;;;9.48;81.29
7754;BME280;3921;42.266;23.122;2022-12-07T17:45:31;95389.56;;;10.88;81.06
7754;BME280;3921;42.266;23.122;2022-12-07T17:48:24;94891.00;;;7.71;79.52
7754;BME280;3921;42.266;23.122;2022-12-07T17:51:15;94945.09;;;7.90;78.29
7754;BME280;3921;42.266;23.122;2022-12-07T17:54:08;95045.78;;;8.52;77.22
7754;BME280;3921;42.266;23.122;2022-12-07T17:56:41;95344.72;;;10.40;76.34
7754;BME280;3921;42.266;23.122;2022-12-07T17:59:08;95114.94;;;8.79;76.40
7754;BME280;3921;42.266;23.122;2022-12-07T18:01:35;94909.38;;;7.64;75.55
7754;BME280;3921;42.266;23.122;2022-12-07T18:04:03;94961.81;;;7.76;76.25
7754;BME280;3921;42.266;23.122;2022-12-07T18:06:33;94931.84;;;7.65;75.52
7754;BME280;3921;42.266;23.122;2022-12-07T18:09:20;95212.44;;;9.20;74.86
7754;BME280;3921;42.266;23.122;2022-12-07T18:12:12;95410.84;;;10.45;75.66
7754;BME280;3921;42.266;23.122;2022-12-07T18:14:52;95421.75;;;10.41;75.80
7754;BME280;3921;42.266;23.122;2022-12-07T18:17:38;95104.25;;;8.39;75.96
7754;BME280;3921;42.266;23.122;2022-12-07T18:20:23;94936.13;;;7.24;75.33
7754;BME280;3921;42.266;23.122;2022-12-07T18:22:53;94937.81;;;7.15;75.43
7754;BME280;3921;42.266;23.122;2022-12-07T18:28:51;94895.38;;;6.91;75.53
7754;BME280;3921;42.266;23.122;2022-12-07T18:31:23;94889.56;;;6.86;76.08
7754;BME280;3921;42.266;23.122;2022-12-07T18:34:26;94878.75;;;6.67;75.97
7754;BME280;3921;42.266;23.122;2022-12-07T18:37:23;94913.69;;;6.98;76.35
7754;BME280;3921;42.266;23.122;2022-12-07T18:40:12;95304.25;;;9.52;76.53
7754;BME280;3921;42.266;23.122;2022-12-07T18:42:54;94936.97;;;7.13;75.76
7754;BME280;3921;42.266;23.122;2022-12-07T18:45:26;94881.25;;;6.81;76.21
7754;BME280;3921;42.266;23.122;2022-12-07T18:47:56;95220.94;;;8.89;77.00
7754;BME280;3921;42.266;23.122;2022-12-07T18:50:31;94992.75;;;7.26;76.27
7754;BME280;3921;42.266;23.122;2022-12-07T18:53:22;94920.34;;;7.03;76.89
7754;BME280;3921;42.266;23.122;2022-12-07T18:56:14;94966.13;;;7.07;76.05
7754;BME280;3921;42.266;23.122;2022-12-07T18:58:42;95194.34;;;8.60;75.97
7754;BME280;3921;42.266;23.122;2022-12-07T19:01:28;94957.81;;;6.99;75.14
7754;BME280;3921;42.266;23.122;2022-12-07T19:03:56;95040.22;;;7.44;75.30
7754;BME280;3921;42.266;23.122;2022-12-07T19:09:47;95133.53;;;7.83;75.68
7754;BME280;3921;42.266;23.122;2022-12-07T19:12:27;95181.00;;;8.29;75.24
7754;BME280;3921;42.266;23.122;2022-12-07T19:15:14;94889.56;;;6.48;74.86
7754;BME280;3921;42.266;23.122;2022-12-07T19:17:53;95409.56;;;9.53;75.41
7754;BME280;3921;42.266;23.122;2022-12-07T19:20:34;94883.72;;;6.09;75.44
7754;BME280;3921;42.266;23.122;2022-12-07T19:23:06;95284.47;;;8.66;75.36
7754;BME280;3921;42.266;23.122;2022-12-07T19:31:13;94933.63;;;6.21;75.65
7754;BME280;3921;42.266;23.122;2022-12-07T19:42:44;95042.69;;;6.68;76.46
7754;BME280;3921;42.266;23.122;2022-12-07T19:45:33;95422.19;;;9.09;76.46
7754;BME280;3921;42.266;23.122;2022-12-07T19:48:12;94946.84;;;5.94;75.60
7754;BME280;3921;42.266;23.122;2022-12-07T19:57:26;94879.28;;;5.30;76.30
7754;BME280;3921;42.266;23.122;2022-12-07T20:03:12;95170.19;;;7.35;77.13
7754;BME280;3921;42.266;23.122;2022-12-07T20:05:41;95170.19;;;7.26;76.88
7754;BME280;3921;42.266;23.122;2022-12-07T20:08:12;94832.81;;;5.35;76.93
7754;BME280;3921;42.266;23.122;2022-12-07T20:10:40;94956.72;;;5.77;77.25
7754;BME280;3921;42.266;23.122;2022-12-07T20:13:07;95326.19;;;8.15;77.30
7754;BME280;3921;42.266;23.122;2022-12-07T20:15:51;94930.91;;;5.62;77.10
7754;BME280;3921;42.266;23.122;2022-12-07T20:18:35;94927.59;;;5.56;77.18
7754;BME280;3921;42.266;23.122;2022-12-07T20:21:07;94915.94;;;5.52;76.73
7754;BME280;3921;42.266;23.122;2022-12-07T20:23:34;94945.94;;;5.77;76.59
7754;BME280;3921;42.266;23.122;2022-12-07T20:26:06;95089.19;;;6.40;76.92
7754;BME280;3921;42.266;23.122;2022-12-07T20:28:36;94834.31;;;5.02;76.34
7754;BME280;3921;42.266;23.122;2022-12-07T20:31:20;94967.41;;;5.55;76.08
7754;BME280;3921;42.266;23.122;2022-12-07T20:34:09;95052.50;;;6.11;76.53
7754;BME280;3921;42.266;23.122;2022-12-07T20:39:13;94980.78;;;5.63;76.53
7754;BME280;3921;42.266;23.122;2022-12-07T20:41:50;94830.13;;;4.88;76.32
7754;BME280;3921;42.266;23.122;2022-12-07T20:44:39;94990.75;;;5.65;75.91
7754;BME280;3921;42.266;23.122;2022-12-07T20:47:09;95253.53;;;7.47;76.80
7754;BME280;3921;42.266;23.122;2022-12-07T20:49:45;95009.06;;;5.76;76.56
7754;BME280;3921;42.266;23.122;2022-12-07T20:52:25;94970.75;;;5.51;76.83
7754;BME280;3921;42.266;23.122;2022-12-07T20:55:07;95013.28;;;5.88;77.02
7754;BME280;3921;42.266;23.122;2022-12-07T20:57:34;95245.13;;;7.18;76.35
7754;BME280;3921;42.266;23.122;2022-12-07T21:00:05;95001.56;;;5.71;75.81
7754;BME280;3921;42.266;23.122;2022-12-07T21:02:38;95025.84;;;5.98;76.38
7754;BME280;3921;42.266;23.122;2022-12-07T21:05:09;95458.09;;;8.65;77.41
7754;BME280;3921;42.266;23.122;2022-12-07T21:07:53;95132.59;;;6.73;76.70
7754;BME280;3921;42.266;23.122;2022-12-07T21:10:21;95492.34;;;8.68;77.26
7754;BME280;3921;42.266;23.122;2022-12-07T21:15:28;95130.88;;;6.61;76.95
7754;BME280;3921;42.266;23.122;2022-12-07T21:18:20;94935.75;;;5.28;77.04
7754;BME280;3921;42.266;23.122;2022-12-07T21:21:03;94923.19;;;5.16;77.09
7754;BME280;3921;42.266;23.122;2022-12-07T21:23:31;95189.94;;;6.59;76.50
7754;BME280;3921;42.266;23.122;2022-12-07T21:25:58;94983.06;;;5.32;76.26
7754;BME280;3921;42.266;23.122;2022-12-07T21:28:29;95441.28;;;8.14;76.48
7754;BME280;3921;42.266;23.122;2022-12-07T21:30:56;94994.72;;;5.35;76.17
7754;BME280;3921;42.266;23.122;2022-12-07T21:33:24;95004.56;;;5.18;76.22